Time;durP1;ratioP1;P1;durP2;ratioP2;P2;SDS_P1;SDS_P2;PMS_P1;PMS_P2;Temp;Humidity;BMP_temperature;BMP_pressure;BME280_temperature;BME280_humidity;BME280_pressure;Samples;Min_cycle;Max_cycle;Signal;HPM_P1;HPM_P2
2021/11/08 00:00:51;;;;;;;19.93;17.37;;;;;;;8.05;78.19;99963.70;1666986;84;21093;-70
2021/11/08 00:03:24;;;;;;;20.77;16.83;;;;;;;8.06;78.25;99960.02;1687715;85;20994;-65
2021/11/08 00:05:50;;;;;;;19.73;15.07;;;;;;;8.13;78.13;99964.42;1653693;85;21048;-65
2021/11/08 00:08:17;;;;;;;;;;;;;;;8.20;77.86;99959.22;1645158;86;21084;-65
2021/11/08 00:10:47;;;;;;;19.37;17.23;;;;;;;8.24;77.70;99955.19;1647628;85;20474;-63
2021/11/08 00:13:15;;;;;;;24.83;18.50;;;;;;;8.20;77.87;99956.56;1625161;85;21504;-66
2021/11/08 00:18:25;;;;;;;20.87;18.37;;;;;;;8.25;77.73;99953.35;1635285;86;21091;-65
2021/11/08 00:20:48;;;;;;;21.93;17.70;;;;;;;8.33;77.26;99950.63;1687738;84;21002;-65
2021/11/08 00:23:15;;;;;;;22.67;16.73;;;;;;;8.37;77.07;99947.41;1672736;83;21584;-66
2021/11/08 00:25:44;;;;;;;23.13;17.87;;;;;;;8.38;76.83;99953.53;1685594;83;21037;-64
2021/11/08 00:28:14;;;;;;;22.03;18.70;;;;;;;8.33;76.87;99946.64;1683819;83;21049;-66
2021/11/08 00:30:44;;;;;;;23.63;18.47;;;;;;;8.23;77.02;99932.80;1658136;85;21066;-63
2021/11/08 00:33:17;;;;;;;25.87;18.27;;;;;;;8.26;77.12;99933.77;1609371;85;21486;-62
2021/11/08 00:35:49;;;;;;;18.97;16.93;;;;;;;8.25;77.10;99932.11;1650504;85;21090;-64
2021/11/08 00:38:17;;;;;;;21.70;17.13;;;;;;;8.27;77.06;99929.61;1672135;84;21066;-64
2021/11/08 00:40:45;;;;;;;20.73;18.50;;;;;;;8.23;77.20;99925.68;1703974;82;20985;-63
2021/11/08 00:43:16;;;;;;;20.63;17.67;;;;;;;8.17;77.42;99926.39;1714489;82;21078;-63
2021/11/08 00:45:41;;;;;;;24.93;19.03;;;;;;;8.14;77.61;99932.90;1706350;82;21465;-64
2021/11/08 00:48:09;;;;;;;23.10;18.43;;;;;;;8.15;77.40;99926.56;1701030;82;21037;-64
2021/11/08 00:50:36;;;;;;;21.30;16.93;;;;;;;8.23;77.46;99938.11;1705235;82;21137;-64
2021/11/08 00:53:04;;;;;;;21.30;17.87;;;;;;;8.30;77.03;99929.73;1715623;82;21079;-64
2021/11/08 00:55:31;;;;;;;22.10;18.10;;;;;;;8.33;76.90;99931.53;1704724;82;21579;-63
2021/11/08 00:58:00;;;;;;;20.00;17.83;;;;;;;8.32;76.97;99931.19;1701156;82;21010;-64
2021/11/08 01:00:29;;;;;;;25.63;19.00;;;;;;;8.32;76.93;99929.86;1716038;82;20995;-63
2021/11/08 01:02:56;;;;;;;21.03;17.37;;;;;;;8.31;76.80;99930.89;1704987;82;20990;-64
2021/11/08 01:05:22;;;;;;;22.27;18.43;;;;;;;8.32;76.62;99931.19;1710639;82;21134;-64
2021/11/08 01:07:49;;;;;;;20.10;16.67;;;;;;;8.39;76.20;99933.95;1714806;82;21038;-68
2021/11/08 01:10:19;;;;;;;22.77;17.17;;;;;;;8.44;76.05;99929.44;1692846;82;21058;-64
2021/11/08 01:12:46;;;;;;;21.10;18.87;;;;;;;8.46;76.00;99925.61;1686010;81;21525;-62
2021/11/08 01:15:14;;;;;;;20.43;17.47;;;;;;;8.45;76.02;99922.61;1665828;84;21494;-64
2021/11/08 01:17:41;;;;;;;20.57;18.33;;;;;;;8.43;75.92;99925.14;1680908;84;21605;-65
2021/11/08 01:20:12;;;;;;;20.50;16.70;;;;;;;8.43;75.98;99921.98;1667454;84;20999;-64
2021/11/08 01:22:41;;;;;;;21.80;17.60;;;;;;;8.50;75.79;99919.42;1679709;83;21502;-64
2021/11/08 01:25:10;;;;;;;22.90;19.70;;;;;;;8.53;75.53;99925.67;1661726;84;21006;-63
2021/11/08 01:27:43;;;;;;;19.73;17.07;;;;;;;8.57;75.50;99928.30;1674225;84;21030;-64
2021/11/08 01:30:19;;;;;;;23.80;20.87;;;;;;;8.56;75.43;99917.34;1665110;84;21006;-63
2021/11/08 01:35:33;;;;;;;26.00;18.63;;;;;;;8.48;75.28;99922.25;1694386;82;21587;-65
2021/11/08 01:38:04;;;;;;;18.43;16.37;;;;;;;8.57;75.20;99929.63;1696460;82;21072;-63
2021/11/08 01:40:33;;;;;;;22.53;17.50;;;;;;;8.63;75.01;99923.57;1699422;83;21009;-63
2021/11/08 01:42:59;;;;;;;20.90;18.50;;;;;;;8.65;74.82;99917.56;1715452;82;21501;-64
2021/11/08 01:45:27;;;;;;;22.90;18.03;;;;;;;8.66;74.70;99915.72;1648508;81;21532;-63
2021/11/08 01:47:53;;;;;;;21.87;19.47;;;;;;;8.62;74.77;99912.61;1631162;86;20999;-63
2021/11/08 01:50:20;;;;;;;19.00;17.02;;;;;;;8.61;74.89;99908.80;1627629;86;21312;-65
2021/11/08 01:52:47;;;;;;;27.30;18.17;;;;;;;8.60;74.81;99907.98;1638228;86;21063;-64
2021/11/08 01:55:14;;;;;;;18.87;16.87;;;;;;;8.60;74.67;99911.16;1640285;85;21086;-66
2021/11/08 01:57:41;;;;;;;21.40;17.35;;;;;;;8.65;74.51;99908.78;1636451;86;21026;-64
2021/11/08 02:00:10;;;;;;;22.97;18.37;;;;;;;8.70;74.35;99913.00;1639649;86;20990;-64
2021/11/08 02:02:38;;;;;;;21.30;18.57;;;;;;;8.71;74.10;99904.85;1632723;86;21030;-63
2021/11/08 02:05:05;;;;;;;22.30;20.00;;;;;;;8.69;73.99;99907.39;1626205;86;21131;-64
2021/11/08 02:07:33;;;;;;;23.63;19.47;;;;;;;8.63;74.06;99906.81;1641106;86;21074;-63
2021/11/08 02:10:00;;;;;;;21.60;18.35;;;;;;;8.57;74.06;99910.52;1637579;86;21062;-63
2021/11/08 02:12:27;;;;;;;22.58;17.55;;;;;;;8.59;74.17;99907.69;1671106;83;21528;-63
2021/11/08 02:14:53;;;;;;;19.23;17.03;;;;;;;8.63;73.81;99905.48;1703199;82;21999;-63
2021/11/08 02:17:19;;;;;;;24.52;17.52;;;;;;;8.60;73.80;99904.00;1719556;82;21009;-62
2021/11/08 02:19:46;;;;;;;22.65;18.98;;;;;;;8.53;73.82;99903.09;1709922;82;21117;-65
2021/11/08 02:22:13;;;;;;;21.93;17.90;;;;;;;8.47;74.01;99906.50;1712492;82;20970;-63
2021/11/08 02:24:42;;;;;;;23.40;18.50;;;;;;;8.39;74.15;99913.52;1720204;82;20989;-64
2021/11/08 02:27:08;;;;;;;19.27;16.53;;;;;;;8.34;74.26;99911.95;1707880;82;21560;-63
2021/11/08 02:29:35;;;;;;;19.83;17.40;;;;;;;8.37;74.27;99906.76;1701529;82;21501;-64
2021/11/08 02:32:03;;;;;;;23.30;19.05;;;;;;;8.39;73.98;99905.55;1717497;82;20962;-67
2021/11/08 02:34:31;;;;;;;21.40;18.23;;;;;;;8.36;74.05;99897.13;1702769;82;21199;-64
2021/11/08 02:36:57;;;;;;;23.57;18.27;;;;;;;8.32;74.26;99898.00;1656840;85;21023;-64
2021/11/08 02:39:32;;;;;;;20.57;18.32;;;;;;;8.31;74.21;99895.04;1715737;82;21034;-64
2021/11/08 02:41:54;;;;;;;21.60;17.80;;;;;;;8.28;74.36;99891.92;1703404;82;20989;-64
2021/11/08 02:44:20;;;;;;;16.85;14.98;;;;;;;8.27;74.27;99893.77;1698210;80;21073;-65
2021/11/08 02:46:46;;;;;;;21.62;16.67;;;;;;;8.31;74.11;99890.23;1666269;84;21054;-62
2021/11/08 02:49:15;;;;;;;20.92;18.30;;;;;;;8.32;74.02;99893.20;1664355;85;21063;-64
2021/11/08 02:51:49;;;;;;;19.60;17.00;;;;;;;8.31;74.11;99891.57;1651707;84;21505;-64
2021/11/08 02:54:26;;;;;;;22.60;18.27;;;;;;;8.27;74.24;99901.73;1664912;84;21153;-63
2021/11/08 02:56:42;;;;;;;20.80;17.83;;;;;;;8.20;74.34;99907.45;1650187;84;21545;-68
2021/11/08 02:59:09;;;;;;;22.70;17.82;;;;;;;8.13;74.49;99916.63;1649087;86;21022;-63
2021/11/08 03:01:36;;;;;;;19.40;17.43;;;;;;;8.08;74.69;99911.55;1667983;84;21605;-64
2021/11/08 03:04:11;;;;;;;22.27;16.95;;;;;;;8.07;74.56;99920.54;1683803;85;21580;-64
2021/11/08 03:06:33;;;;;;;22.77;16.80;;;;;;;8.04;74.68;99919.05;1673072;84;21034;-63
2021/11/08 03:09:17;;;;;;;18.30;16.43;;;;;;;8.02;74.73;99923.72;1686641;85;20994;-64
2021/11/08 03:11:45;;;;;;;22.70;17.23;;;;;;;7.97;75.01;99908.87;1674260;83;21070;-65
2021/11/08 03:14:16;;;;;;;20.10;16.90;;;;;;;7.92;75.12;99908.06;1706460;83;21017;-64
2021/11/08 03:16:45;;;;;;;21.33;18.17;;;;;;;7.92;75.04;99912.56;1706016;83;21126;-64
2021/11/08 03:19:24;;;;;;;17.93;15.40;;;;;;;7.91;74.94;99920.19;1712641;83;20999;-64
2021/11/08 03:21:50;;;;;;;19.17;14.53;;;;;;;7.94;74.83;99911.36;1695183;83;21656;-64
2021/11/08 03:27:15;;;;;;;16.63;14.93;;;;;;;8.02;74.62;99909.64;1694345;83;21147;-63
2021/11/08 03:29:39;;;;;;;19.57;16.50;;;;;;;7.96;74.59;99897.41;1709477;83;21109;-64
2021/11/08 03:32:06;;;;;;;20.92;16.32;;;;;;;7.92;74.82;99893.98;1710273;83;21039;-64
2021/11/08 03:34:37;;;;;;;22.17;15.80;;;;;;;7.92;74.82;99893.98;1677156;83;21095;-62
2021/11/08 03:37:04;;;;;;;17.33;15.40;;;;;;;7.90;74.78;99891.51;1658248;84;21059;-63
2021/11/08 03:39:31;;;;;;;20.07;15.20;;;;;;;7.97;74.35;99896.41;1650322;84;21522;-64
2021/11/08 03:41:57;;;;;;;;;;;;;;;8.02;74.26;99894.53;1658558;84;21535;-64
2021/11/08 03:44:24;;;;;;;20.10;15.57;;;;;;;8.05;74.14;99901.32;1663469;84;20260;-63
2021/11/08 03:46:50;;;;;;;19.62;15.58;;;;;;;7.98;74.25;99895.90;1662703;85;21523;-63
2021/11/08 03:49:16;;;;;;;22.50;16.45;;;;;;;7.95;74.22;99898.94;1658197;85;21471;-63
2021/11/08 03:51:42;;;;;;;23.60;16.10;;;;;;;7.92;74.27;99900.11;1659625;85;21663;-63
2021/11/08 03:54:08;;;;;;;18.42;15.35;;;;;;;7.92;74.21;99903.27;1650287;85;21243;-64
2021/11/08 03:56:35;;;;;;;20.82;15.45;;;;;;;7.90;74.04;99890.18;1657999;85;21034;-64
2021/11/08 03:59:02;;;;;;;15.87;13.97;;;;;;;7.96;74.07;99889.44;1660848;85;21501;-64
2021/11/08 04:01:35;;;;;;;17.30;15.50;;;;;;;8.03;73.77;99890.06;1655450;85;21000;-64
2021/11/08 04:03:59;;;;;;;18.90;15.77;;;;;;;8.03;73.67;99895.37;1665450;85;21039;-64
2021/11/08 04:06:25;;;;;;;18.52;14.65;;;;;;;7.99;73.62;99897.05;1666336;85;21050;-67
2021/11/08 04:08:52;;;;;;;17.95;14.30;;;;;;;7.95;73.56;99895.77;1669436;85;21038;-62
2021/11/08 04:11:19;;;;;;;16.65;13.88;;;;;;;7.92;73.77;99890.00;1662891;84;20995;-66
2021/11/08 04:13:45;;;;;;;16.07;14.37;;;;;;;7.94;73.62;99895.44;1670741;84;21632;-64
2021/11/08 04:16:14;;;;;;;;;;;;;;;7.95;73.37;99899.75;1686219;84;21018;-65
2021/11/08 04:18:48;;;;;;;16.53;14.47;;;;;;;7.94;73.39;99895.44;1680756;84;20473;-65
2021/11/08 04:21:10;;;;;;;16.00;14.30;;;;;;;7.89;73.75;99896.98;1680681;84;21665;-63
2021/11/08 04:23:37;;;;;;;18.63;14.57;;;;;;;7.89;73.83;99896.51;1675581;83;21106;-63
2021/11/08 04:26:05;;;;;;;17.30;14.95;;;;;;;7.89;73.53;99892.53;1678605;84;21519;-64
2021/11/08 04:28:31;;;;;;;16.20;14.07;;;;;;;7.87;73.63;99903.80;1679856;84;21058;-63
2021/11/08 04:30:59;;;;;;;19.48;15.83;;;;;;;7.91;73.56;99893.17;1643442;86;21119;-64
2021/11/08 04:36:34;;;;;;;16.57;14.77;;;;;;;7.96;73.01;99902.72;1679566;84;21124;-63
2021/11/08 04:41:14;;;;;;;19.20;14.95;;;;;;;7.92;73.23;99900.62;1680100;84;21113;-63
2021/11/08 05:31:47;;;;;;;14.67;13.10;;;;;;;8.24;72.66;99945.08;1676901;84;21113;-65
2021/11/08 05:34:14;;;;;;;14.83;13.33;;;;;;;8.36;72.03;99949.77;1680417;84;20967;-67
2021/11/08 05:36:42;;;;;;;15.97;12.73;;;;;;;8.43;71.80;99958.34;1677605;84;21113;-63
2021/11/08 05:39:10;;;;;;;13.07;11.60;;;;;;;8.48;71.37;99966.59;1667767;84;20997;-65
2021/11/08 05:41:40;;;;;;;16.93;13.83;;;;;;;8.44;70.66;99970.60;1678786;84;21117;-66
2021/11/08 05:44:07;;;;;;;18.80;13.53;;;;;;;8.39;71.13;99972.46;1679709;84;21106;-68
2021/11/08 05:46:36;;;;;;;15.43;12.80;;;;;;;8.43;71.26;99968.97;1687092;84;21093;-69
2021/11/08 05:49:03;;;;;;;13.53;12.10;;;;;;;8.51;70.69;99964.41;1685234;84;20981;-65
2021/11/08 05:51:31;;;;;;;15.13;13.53;;;;;;;8.55;70.31;99974.97;1682085;84;21093;-64
2021/11/08 05:53:58;;;;;;;15.37;13.03;;;;;;;8.54;70.19;99968.51;1685705;84;21003;-65
2021/11/08 05:56:30;;;;;;;15.85;14.18;;;;;;;8.49;70.44;99974.87;1676828;84;21462;-68
2021/11/08 06:50:40;;;;;;;15.57;13.77;;;;;;;8.60;69.70;100012.93;1692914;84;21050;-66
2021/11/08 06:53:10;;;;;;;18.12;15.05;;;;;;;8.60;69.84;100019.57;1700908;82;21056;-67
2021/11/08 06:55:35;;;;;;;15.53;13.93;;;;;;;8.60;69.75;100022.73;1697710;83;21578;-64
2021/11/08 06:58:03;;;;;;;;;;;;;;;8.63;69.62;100027.70;1698405;84;21067;-66
2021/11/08 07:00:31;;;;;;;18.30;13.00;;;;;;;8.66;69.49;100029.45;1686337;83;20156;-66
2021/11/08 07:02:57;;;;;;;15.00;11.90;;;;;;;8.74;69.49;100025.40;1690735;84;21070;-67
2021/11/08 07:05:23;;;;;;;15.32;12.55;;;;;;;8.85;68.95;100020.61;1694431;83;21034;-68
2021/11/08 07:07:50;;;;;;;14.53;13.20;;;;;;;8.91;69.03;100023.85;1699769;84;21059;-68
2021/11/08 07:10:20;;;;;;;;;;;;;;;8.94;68.93;100019.50;1694465;83;21358;-67
2021/11/08 07:12:44;;;;;;;13.93;12.33;;;;;;;8.95;68.26;100017.18;1703847;82;20190;-69
2021/11/08 07:15:10;;;;;;;16.55;14.23;;;;;;;8.88;68.82;100026.39;1686694;84;21094;-66
2021/11/08 07:17:36;;;;;;;;;;;;;;;8.91;68.32;100023.37;1693335;84;21058;-67
2021/11/08 07:20:05;;;;;;;16.17;13.53;;;;;;;8.87;68.29;100023.91;1689441;84;20152;-68
2021/11/08 07:22:32;;;;;;;14.60;13.10;;;;;;;8.76;68.64;100018.58;1688302;82;21004;-67
2021/11/08 07:24:58;;;;;;;17.12;12.33;;;;;;;8.77;68.58;100023.68;1634576;87;21047;-68
2021/11/08 07:27:25;;;;;;;17.02;13.28;;;;;;;8.87;68.69;100022.09;1649795;86;21057;-68
2021/11/08 07:29:52;;;;;;;17.80;14.15;;;;;;;8.92;68.37;100030.31;1645530;86;21041;-66
2021/11/08 07:32:19;;;;;;;14.77;13.17;;;;;;;8.92;68.45;100034.81;1641797;86;21552;-67
2021/11/08 07:34:46;;;;;;;17.40;13.13;;;;;;;8.91;68.66;100041.13;1652536;84;21655;-66
2021/11/08 07:37:12;;;;;;;14.15;12.47;;;;;;;8.86;68.47;100048.34;1673432;84;21013;-66
2021/11/08 07:39:38;;;;;;;16.40;13.83;;;;;;;8.75;68.55;100057.59;1661494;86;21587;-66
2021/11/08 07:42:05;;;;;;;19.73;13.80;;;;;;;8.67;69.17;100056.36;1652099;85;21135;-67
2021/11/08 07:44:31;;;;;;;15.83;12.83;;;;;;;8.70;69.13;100053.83;1661820;85;21139;-67
2021/11/08 07:46:57;;;;;;;17.90;12.37;;;;;;;8.74;69.08;100049.83;1636699;86;21618;-67
2021/11/08 07:49:23;;;;;;;14.05;12.58;;;;;;;8.78;69.27;100068.38;1651296;86;21353;-67
2021/11/08 07:51:50;;;;;;;13.13;11.93;;;;;;;8.70;69.21;100061.33;1662229;86;21136;-65
2021/11/08 07:54:16;;;;;;;;;;;;;;;8.76;69.34;100075.20;1659841;84;21778;-65
2021/11/08 07:56:47;;;;;;;18.40;13.37;;;;;;;8.72;69.42;100082.38;1669567;83;20115;-67
2021/11/08 07:59:10;;;;;;;14.90;12.77;;;;;;;8.70;69.72;100082.58;1612375;87;21028;-67
2021/11/08 08:01:36;;;;;;;20.43;13.48;;;;;;;8.72;69.59;100076.58;1641020;85;21035;-67
2021/11/08 08:04:03;;;;;;;13.03;11.73;;;;;;;8.79;69.41;100071.34;1658220;85;21069;-67
2021/11/08 08:06:29;;;;;;;16.63;12.70;;;;;;;8.94;69.48;100083.30;1614447;88;21573;-67
2021/11/08 08:08:56;;;;;;;13.38;11.97;;;;;;;9.06;69.09;100075.68;1655614;85;21912;-69
2021/11/08 08:11:22;;;;;;;15.18;12.28;;;;;;;9.15;68.94;100078.56;1619836;86;20987;-66
2021/11/08 08:13:51;;;;;;;15.90;12.73;;;;;;;9.25;68.64;100080.45;1655766;85;21096;-68
2021/11/08 08:16:19;;;;;;;15.83;12.33;;;;;;;9.27;67.85;100083.73;1653119;85;21111;-67
2021/11/08 08:18:48;;;;;;;17.33;13.03;;;;;;;9.27;67.92;100077.60;1649730;85;21060;-64
2021/11/08 08:21:16;;;;;;;19.47;14.03;;;;;;;9.28;68.01;100083.23;1641547;85;21012;-67
2021/11/08 08:23:43;;;;;;;17.83;12.90;;;;;;;9.30;68.09;100083.34;1661168;85;21643;-65
2021/11/08 08:26:12;;;;;;;12.90;10.67;;;;;;;9.34;67.66;100086.47;1667960;85;22098;-68
2021/11/08 08:28:39;;;;;;;12.33;10.53;;;;;;;9.41;67.68;100102.52;1665217;84;21029;-65
2021/11/08 08:31:06;;;;;;;15.60;11.17;;;;;;;9.49;66.72;100088.61;1665708;85;21057;-67
2021/11/08 08:33:34;;;;;;;14.57;11.80;;;;;;;9.54;66.69;100088.85;1642276;85;20989;-72
2021/11/08 08:36:01;;;;;;;12.90;10.43;;;;;;;9.57;66.55;100089.00;1664660;85;21052;-67
2021/11/08 08:38:27;;;;;;;;;;;;;;;9.61;66.55;100086.80;1663866;85;21558;-66
2021/11/08 08:40:55;;;;;;;15.07;10.93;;;;;;;9.65;66.60;100085.40;1662376;85;20221;-68
2021/11/08 08:43:24;;;;;;;13.83;11.37;;;;;;;9.67;66.49;100086.03;1662524;85;21072;-67
2021/11/08 08:45:52;;;;;;;12.30;9.80;;;;;;;9.70;66.41;100084.30;1661294;84;21094;-67
2021/11/08 08:48:19;;;;;;;14.07;11.10;;;;;;;9.75;66.09;100070.75;1670255;85;21524;-66
2021/11/08 08:50:46;;;;;;;12.13;10.70;;;;;;;9.75;65.86;100078.73;1659844;84;21024;-66
2021/11/08 08:53:12;;;;;;;11.90;9.87;;;;;;;9.82;65.77;100089.98;1669169;85;21065;-65
2021/11/08 08:55:42;;;;;;;11.18;9.20;;;;;;;9.89;65.54;100089.02;1664612;84;21872;-68
2021/11/08 08:58:08;;;;;;;10.67;9.57;;;;;;;10.05;64.77;100081.27;1667852;84;21021;-67
2021/11/08 09:00:37;;;;;;;13.40;9.07;;;;;;;10.08;64.42;100088.89;1675520;85;21116;-66
2021/11/08 09:03:07;;;;;;;10.73;9.67;;;;;;;10.03;64.62;100099.80;1668779;85;21554;-67
2021/11/08 09:05:35;;;;;;;13.53;8.93;;;;;;;10.01;64.27;100101.31;1672363;85;21290;-66
2021/11/08 09:08:02;;;;;;;14.53;9.60;;;;;;;10.01;64.14;100088.52;1670641;85;21072;-68
2021/11/08 09:10:32;;;;;;;10.57;9.47;;;;;;;9.94;64.18;100089.77;1668076;85;21137;-69
2021/11/08 09:13:00;;;;;;;10.47;9.00;;;;;;;9.94;64.47;100095.95;1671755;85;21024;-70
2021/11/08 09:15:29;;;;;;;12.07;9.37;;;;;;;9.97;64.55;100105.37;1665218;85;21116;-69
2021/11/08 09:17:58;;;;;;;11.17;10.17;;;;;;;9.97;64.14;100105.37;1674776;85;21052;-68
2021/11/08 09:20:24;;;;;;;10.77;9.67;;;;;;;9.94;64.05;100105.27;1662115;85;21100;-68
2021/11/08 09:22:53;;;;;;;12.80;9.38;;;;;;;9.97;64.23;100109.89;1662909;84;21056;-68
2021/11/08 09:28:12;;;;;;;10.10;8.97;;;;;;;10.19;63.76;100091.56;1790313;79;23027;-67
2021/11/08 09:30:44;;;;;;;11.75;9.08;;;;;;;10.19;63.61;100102.21;1750035;80;21030;-67
2021/11/08 09:33:11;;;;;;;10.20;9.10;;;;;;;10.23;63.32;100097.33;1709706;81;21018;-73
2021/11/08 09:35:44;;;;;;;12.23;8.90;;;;;;;10.20;63.08;100095.85;1629980;86;21148;-69
2021/11/08 09:38:09;;;;;;;10.73;9.47;;;;;;;10.15;63.16;100095.59;1635896;86;21092;-69
2021/11/08 09:40:39;;;;;;;10.23;9.07;;;;;;;10.10;62.58;100086.86;1605851;87;21153;-66
2021/11/08 09:43:11;;;;;;;14.57;10.77;;;;;;;10.07;62.79;100085.09;1636164;86;21465;-68
2021/11/08 09:45:38;;;;;;;12.33;10.57;;;;;;;10.07;62.60;100071.25;1623212;86;21073;-68
2021/11/08 09:48:05;;;;;;;9.63;8.23;;;;;;;10.07;62.76;100077.09;1629299;86;21593;-67
2021/11/08 09:50:34;;;;;;;13.47;9.73;;;;;;;10.07;62.20;100077.09;1632622;86;21060;-65
2021/11/08 09:53:03;;;;;;;12.30;9.90;;;;;;;10.05;62.49;100080.46;1626370;86;21561;-70
2021/11/08 09:55:31;;;;;;;15.30;10.97;;;;;;;10.07;62.60;100082.42;1636708;85;21097;-69
2021/11/08 09:57:58;;;;;;;14.70;10.10;;;;;;;10.10;62.31;100090.04;1667656;84;21132;-68
2021/11/08 10:00:38;;;;;;;10.33;7.93;;;;;;;10.11;62.23;100092.52;1658859;84;21176;-66
2021/11/08 10:03:25;;;;;;;11.60;9.10;;;;;;;10.15;61.84;100103.59;1634696;86;21587;-68
2021/11/08 10:05:55;;;;;;;12.67;8.87;;;;;;;10.13;61.65;100099.80;1652259;85;21074;-66
2021/11/08 10:08:30;;;;;;;11.13;8.23;;;;;;;10.13;61.53;100110.95;1662156;85;21110;-67
2021/11/08 10:11:01;;;;;;;9.73;8.27;;;;;;;10.08;61.12;100116.04;1662818;85;21089;-68
2021/11/08 10:13:30;;;;;;;9.50;8.60;;;;;;;10.02;61.30;100111.45;1661150;83;21096;-69
2021/11/08 10:16:13;;;;;;;8.17;7.37;;;;;;;10.00;61.51;100116.15;1662465;85;21045;-68
2021/11/08 10:18:44;;;;;;;10.03;8.00;;;;;;;9.98;61.63;100119.00;1646171;85;21116;-66
2021/11/08 10:21:16;;;;;;;13.07;8.90;;;;;;;9.99;61.60;100124.66;1620658;86;21450;-72
2021/11/08 10:23:47;;;;;;;13.80;9.93;;;;;;;10.00;61.76;100126.31;1649452;84;20995;-68
2021/11/08 10:26:18;;;;;;;13.33;8.30;;;;;;;9.98;61.72;100120.84;1653914;84;21007;-70
2021/11/08 10:28:56;;;;;;;7.70;6.43;;;;;;;9.98;61.20;100116.84;1654683;84;21086;-71
2021/11/08 10:31:33;;;;;;;12.00;7.90;;;;;;;9.99;61.06;100117.17;1665792;84;21065;-69
2021/11/08 10:34:04;;;;;;;9.18;7.95;;;;;;;10.05;60.85;100111.09;1655354;84;21037;-70
2021/11/08 10:36:32;;;;;;;20.27;10.67;;;;;;;10.12;60.23;100120.78;1650492;84;21041;-68
2021/11/08 10:39:01;;;;;;;8.50;7.57;;;;;;;10.18;59.93;100116.53;1657642;84;21078;-67
2021/11/08 10:41:31;;;;;;;9.10;6.83;;;;;;;10.18;58.30;100109.88;1655541;84;21010;-69
2021/11/08 10:44:07;;;;;;;10.53;6.73;;;;;;;10.18;58.73;100109.88;1655895;84;21591;-72
2021/11/08 10:46:41;;;;;;;8.83;4.77;;;;;;;10.06;57.67;100079.46;1652079;84;21106;-67
2021/11/08 10:49:18;;;;;;;7.27;5.53;;;;;;;10.29;57.18;100112.53;1650542;85;21187;-69
2021/11/08 10:51:47;;;;;;;;;;;;;;;10.35;57.11;100117.64;1667336;84;21074;-70
2021/11/08 10:54:24;;;;;;;5.07;4.43;;;;;;;10.40;56.74;100128.55;1668035;84;20121;-68
2021/11/08 10:57:11;;;;;;;13.08;6.78;;;;;;;10.38;56.88;100119.90;1658552;84;21129;-68
2021/11/08 10:59:48;;;;;;;9.20;5.17;;;;;;;10.39;56.42;100116.23;1661945;84;21219;-69
2021/11/08 11:02:17;;;;;;;4.47;3.83;;;;;;;10.41;56.66;100106.20;1636230;84;21015;-69
2021/11/08 11:04:55;;;;;;;10.10;5.73;;;;;;;10.49;55.88;100103.38;1627256;86;21068;-68
2021/11/08 11:07:33;;;;;;;6.53;4.77;;;;;;;10.54;55.37;100104.97;1629253;86;21089;-68
2021/11/08 11:10:07;;;;;;;7.33;5.10;;;;;;;10.53;54.98;100102.00;1631325;86;21002;-68
2021/11/08 11:12:35;;;;;;;8.53;4.97;;;;;;;10.50;55.11;100103.20;1636889;86;21009;-67
2021/11/08 11:15:13;;;;;;;4.53;3.33;;;;;;;10.45;54.88;100107.45;1642170;86;21034;-67
2021/11/08 11:17:55;;;;;;;7.03;4.10;;;;;;;10.35;55.32;100097.66;1640939;86;21490;-68
2021/11/08 11:20:29;;;;;;;7.77;4.40;;;;;;;10.32;55.51;100097.03;1641500;86;21501;-68
2021/11/08 11:23:12;;;;;;;8.50;4.80;;;;;;;10.32;55.70;100099.69;1633438;84;21073;-68
2021/11/08 11:25:41;;;;;;;7.23;4.40;;;;;;;10.36;54.99;100102.80;1633706;86;21722;-67
2021/11/08 11:28:12;;;;;;;6.73;5.00;;;;;;;10.38;55.10;100102.09;1644704;86;21060;-68
2021/11/08 11:30:43;;;;;;;7.27;4.93;;;;;;;10.39;55.20;100101.06;1645049;86;21140;-68
2021/11/08 11:33:20;;;;;;;7.40;4.60;;;;;;;10.35;54.08;100102.47;1628978;85;21532;-66
2021/11/08 11:35:55;;;;;;;7.37;4.70;;;;;;;10.30;54.24;100119.50;1584421;88;21278;-67
2021/11/08 11:38:32;;;;;;;3.37;3.07;;;;;;;10.25;54.53;100113.94;1603139;88;21143;-69
2021/11/08 11:41:10;;;;;;;3.92;3.05;;;;;;;10.27;54.43;100119.90;1588071;88;21067;-67
2021/11/08 11:43:48;;;;;;;4.90;3.30;;;;;;;10.31;53.80;100115.34;1581289;88;21165;-67
2021/11/08 11:46:24;;;;;;;5.20;3.60;;;;;;;10.35;53.66;100117.64;1628302;86;21073;-67
2021/11/08 11:48:52;;;;;;;6.80;3.17;;;;;;;10.38;53.51;100109.23;1629634;86;21077;-68
2021/11/08 11:51:25;;;;;;;5.63;3.50;;;;;;;10.39;53.42;100102.39;1597407;87;21058;-66
2021/11/08 11:53:53;;;;;;;6.03;2.93;;;;;;;10.44;52.79;100096.50;1630154;86;21077;-67
2021/11/08 11:56:22;;;;;;;5.17;3.47;;;;;;;10.45;52.33;100100.31;1616704;86;21040;-67
2021/11/08 11:58:49;;;;;;;4.00;2.90;;;;;;;10.43;51.88;100108.98;1650707;85;21057;-66
2021/11/08 12:01:19;;;;;;;8.17;3.27;;;;;;;10.43;52.60;100104.16;1635542;85;21562;-68
2021/11/08 12:03:48;;;;;;;6.23;2.83;;;;;;;10.42;52.19;100103.87;1612978;87;21040;-64
2021/11/08 12:06:23;;;;;;;8.27;4.33;;;;;;;10.43;52.26;100106.83;1648568;85;21079;-65
2021/11/08 12:08:54;;;;;;;7.57;6.33;;;;;;;10.42;52.13;100099.87;1644080;85;21103;-68
2021/11/08 12:11:34;;;;;;;8.87;3.40;;;;;;;10.42;52.45;100107.86;1645759;85;21051;-68
2021/11/08 12:14:08;;;;;;;14.33;4.20;;;;;;;10.40;51.66;100113.89;1616826;87;21520;-68
2021/11/08 12:16:36;;;;;;;5.28;3.47;;;;;;;10.37;52.04;100128.92;1644445;85;21068;-68
2021/11/08 12:19:03;;;;;;;9.67;4.00;;;;;;;10.37;52.13;100128.41;1637763;85;21064;-66
2021/11/08 12:21:35;;;;;;;14.25;3.52;;;;;;;10.38;51.83;100124.73;1631577;86;21579;-65
2021/11/08 12:24:16;;;;;;;20.47;3.20;;;;;;;10.39;51.99;100129.55;1635881;85;21019;-68
2021/11/08 12:26:43;;;;;;;4.13;2.73;;;;;;;10.43;52.36;100136.14;1646309;85;21063;-67
2021/11/08 12:29:16;;;;;;;4.40;2.67;;;;;;;10.45;51.66;100129.63;1631529;86;21056;-68
2021/11/08 12:31:43;;;;;;;5.70;1.90;;;;;;;10.47;51.19;100128.07;1640542;85;21014;-69
2021/11/08 12:34:17;;;;;;;4.90;1.87;;;;;;;10.47;51.37;100130.25;1653053;84;21037;-68
2021/11/08 12:37:00;;;;;;;6.67;2.23;;;;;;;10.48;51.00;100138.55;1645785;85;21077;-67
2021/11/08 12:39:27;;;;;;;9.23;2.47;;;;;;;10.48;50.56;100137.73;1658631;84;21174;-70
2021/11/08 12:42:02;;;;;;;4.00;1.93;;;;;;;10.47;50.54;100131.58;1669916;84;21010;-68
2021/11/08 12:44:42;;;;;;;4.70;2.77;;;;;;;10.48;50.28;100147.05;1668815;84;21022;-65
2021/11/08 12:47:11;;;;;;;7.10;2.90;;;;;;;10.49;50.39;100154.02;1675893;84;20982;-68
2021/11/08 12:49:42;;;;;;;11.77;4.43;;;;;;;10.50;50.70;100154.34;1668174;84;21069;-67
2021/11/08 12:52:14;;;;;;;14.30;5.30;;;;;;;10.54;50.61;100158.27;1668059;84;21017;-66
2021/11/08 12:55:13;;;;;;;12.73;4.57;;;;;;;10.59;50.49;100165.70;1680323;84;21070;-66
2021/11/08 12:57:53;;;;;;;9.83;3.87;;;;;;;10.59;49.92;100153.71;1671650;84;21025;-67
2021/11/08 13:00:26;;;;;;;10.20;2.63;;;;;;;10.55;49.91;100143.94;1667236;84;21118;-65
2021/11/08 13:03:11;;;;;;;7.17;1.60;;;;;;;10.51;49.85;100144.02;1662057;84;21060;-66
2021/11/08 13:05:38;;;;;;;4.73;1.87;;;;;;;10.50;49.98;100148.50;1666568;84;21454;-66
2021/11/08 13:08:18;;;;;;;5.15;1.65;;;;;;;10.51;50.75;100153.34;1672526;84;21033;-66
2021/11/08 13:11:11;;;;;;;4.50;1.83;;;;;;;10.51;50.43;100148.02;1652688;84;21083;-64
2021/11/08 13:13:42;;;;;;;3.73;1.50;;;;;;;10.52;50.36;100158.97;1672296;84;21109;-65
2021/11/08 13:16:12;;;;;;;7.07;2.60;;;;;;;10.50;50.70;100148.50;1653419;84;21013;-68
2021/11/08 13:18:43;;;;;;;5.17;3.40;;;;;;;10.52;50.42;100154.98;1680404;84;21025;-65
2021/11/08 13:21:20;;;;;;;6.93;2.90;;;;;;;10.50;50.40;100149.83;1680235;84;21058;-66
2021/11/08 13:23:51;;;;;;;8.05;3.47;;;;;;;10.46;50.62;100159.75;1672476;84;21519;-68
2021/11/08 13:26:17;;;;;;;6.67;2.80;;;;;;;10.37;50.84;100167.55;1675241;84;21070;-67
2021/11/08 13:28:43;;;;;;;15.50;4.12;;;;;;;10.31;51.17;100167.30;1666727;84;21160;-67
2021/11/08 13:31:12;;;;;;;8.40;3.70;;;;;;;10.29;51.19;100174.62;1672735;84;21033;-65